Time;durP1;ratioP1;P1;durP2;ratioP2;P2;SDS_P1;SDS_P2;PMS_P1;PMS_P2;Temp;Humidity;BMP_temperature;BMP_pressure;BME280_temperature;BME280_humidity;BME280_pressure;Samples;Min_cycle;Max_cycle;Signal;HPM_P1;HPM_P2
2021/12/01 00:00:19;;;;;;;;;1.50;1.50;;;;;;;;5064008;28;61870;-72
2021/12/01 00:02:44;;;;;;;;;1.50;1.50;;;;;;;;5064126;28;61770;-72
2021/12/01 00:05:10;;;;;;;;;1.00;1.00;;;;;;;;5064290;28;61740;-72
2021/12/01 00:07:36;;;;;;;;;2.00;2.00;;;;;;;;5062911;28;62939;-73
2021/12/01 00:10:08;;;;;;;;;3.00;3.00;;;;;;;;5063575;28;61930;-72
2021/12/01 00:12:33;;;;;;;;;6.00;1.00;;;;;;;;5062519;28;61735;-72
2021/12/01 00:14:59;;;;;;;;;3.00;2.00;;;;;;;;5062782;28;61938;-72
2021/12/01 00:17:25;;;;;;;;;5.75;3.25;;;;;;;;5062745;28;63175;-72
2021/12/01 00:19:50;;;;;;;;;7.50;3.00;;;;;;;;5063676;28;62131;-72
2021/12/01 00:22:16;;;;;;;;;3.00;2.50;;;;;;;;5061833;28;61804;-72
2021/12/01 00:24:41;;;;;;;;;3.75;3.50;;;;;;;;5063691;28;61741;-72
2021/12/01 00:27:06;;;;;;;;;3.50;3.00;;;;;;;;5063138;28;62798;-72
2021/12/01 00:29:32;;;;;;;;;4.00;2.00;;;;;;;;5063754;28;62029;-72
2021/12/01 00:31:57;;;;;;;;;3.25;3.25;;;;;;;;5063370;28;62007;-72
2021/12/01 00:34:22;;;;;;;;;7.50;3.50;;;;;;;;5062356;28;61811;-72
2021/12/01 00:36:48;;;;;;;;;3.75;3.25;;;;;;;;5062270;28;61900;-72
2021/12/01 00:39:13;;;;;;;;;4.50;4.00;;;;;;;;5062973;28;61783;-73
2021/12/01 00:41:38;;;;;;;;;5.25;4.00;;;;;;;;5063543;28;61916;-72
2021/12/01 00:44:06;;;;;;;;;3.25;2.75;;;;;;;;5062120;28;61954;-73
2021/12/01 00:49:02;;;;;;;;;5.00;4.00;;;;;;;;5062312;28;61921;-72
2021/12/01 00:51:28;;;;;;;;;3.75;3.50;;;;;;;;5062762;28;62061;-72
2021/12/01 00:53:53;;;;;;;;;4.75;3.75;;;;;;;;5078938;28;61848;-72
2021/12/01 00:56:18;;;;;;;;;3.75;3.00;;;;;;;;5062184;28;61964;-73
2021/12/01 00:58:43;;;;;;;;;4.00;3.25;;;;;;;;5063191;28;62168;-73
2021/12/01 01:01:09;;;;;;;;;4.50;3.75;;;;;;;;5063362;28;61962;-73
2021/12/01 01:03:34;;;;;;;;;6.75;3.75;;;;;;;;5078252;28;61874;-72
2021/12/01 01:06:00;;;;;;;;;5.50;3.75;;;;;;;;5060663;28;63250;-72
2021/12/01 01:08:25;;;;;;;;;3.75;3.75;;;;;;;;5062904;28;61765;-73
2021/12/01 01:11:08;;;;;;;;;4.00;2.75;;;;;;;;5078604;28;61963;-72
2021/12/01 01:16:25;;;;;;;;;4.75;3.50;;;;;;;;5062180;28;62119;-73
2021/12/01 01:18:56;;;;;;;;;3.50;3.50;;;;;;;;5062573;28;61898;-72
2021/12/01 01:21:23;;;;;;;;;3.50;3.25;;;;;;;;5077624;28;61783;-72
2021/12/01 01:23:49;;;;;;;;;6.00;3.00;;;;;;;;5063011;28;61727;-72
2021/12/01 01:26:16;;;;;;;;;2.00;2.00;;;;;;;;5061904;28;61883;-73
2021/12/01 01:28:42;;;;;;;;;2.00;2.00;;;;;;;;5061463;28;62044;-72
2021/12/01 01:31:08;;;;;;;;;4.75;2.00;;;;;;;;5078111;28;61798;-72
2021/12/01 01:33:33;;;;;;;;;1.50;1.50;;;;;;;;5062536;28;62144;-73
2021/12/01 01:35:59;;;;;;;;;1.50;0.50;;;;;;;;5061382;28;62944;-72
2021/12/01 01:38:24;;;;;;;;;1.25;1.25;;;;;;;;5060738;28;62094;-72
2021/12/01 01:40:50;;;;;;;;;1.00;1.00;;;;;;;;5060969;28;61874;-72
2021/12/01 01:43:15;;;;;;;;;1.50;1.50;;;;;;;;5061232;28;61843;-72
2021/12/01 01:45:41;;;;;;;;;1.00;1.00;;;;;;;;5061514;28;63008;-72
2021/12/01 01:48:10;;;;;;;;;1.00;1.00;;;;;;;;5060564;28;62102;-72
2021/12/01 01:50:37;;;;;;;;;3.00;1.75;;;;;;;;5061984;28;61732;-72
2021/12/01 01:53:07;;;;;;;;;3.00;2.00;;;;;;;;5061165;28;62164;-72
2021/12/01 01:55:33;;;;;;;;;1.50;1.50;;;;;;;;5061355;28;63312;-72
2021/12/01 01:57:58;;;;;;;;;2.75;1.00;;;;;;;;5060682;28;61851;-72
2021/12/01 02:00:24;;;;;;;;;2.50;1.50;;;;;;;;5060792;28;61930;-72
2021/12/01 02:02:50;;;;;;;;;4.50;3.00;;;;;;;;5062072;28;61666;-72
2021/12/01 02:05:15;;;;;;;;;4.00;2.75;;;;;;;;5061757;28;62781;-72
2021/12/01 02:07:42;;;;;;;;;2.00;2.00;;;;;;;;5061845;28;61723;-72
2021/12/01 02:10:08;;;;;;;;;2.00;2.00;;;;;;;;5060592;28;61819;-73
2021/12/01 02:12:33;;;;;;;;;0.75;0.50;;;;;;;;5062087;28;62420;-72
2021/12/01 02:14:59;;;;;;;;;1.25;1.25;;;;;;;;5061511;28;62115;-72
2021/12/01 02:17:24;;;;;;;;;2.00;1.00;;;;;;;;5061214;28;61922;-72
2021/12/01 02:19:52;;;;;;;;;0.00;0.00;;;;;;;;5060745;28;62021;-72
2021/12/01 02:22:18;;;;;;;;;3.00;1.00;;;;;;;;5060512;28;62070;-73
2021/12/01 02:24:45;;;;;;;;;1.00;1.00;;;;;;;;5060801;28;61954;-72
2021/12/01 02:27:12;;;;;;;;;1.00;1.00;;;;;;;;5062039;28;61860;-72
2021/12/01 02:29:37;;;;;;;;;0.25;0.25;;;;;;;;5061696;28;62044;-72
2021/12/01 02:32:02;;;;;;;;;1.00;1.00;;;;;;;;5059960;28;62195;-72
2021/12/01 02:34:30;;;;;;;;;1.00;1.00;;;;;;;;5061548;28;63012;-72
2021/12/01 02:36:57;;;;;;;;;2.25;1.00;;;;;;;;5060057;28;61915;-71
2021/12/01 02:39:22;;;;;;;;;1.00;1.00;;;;;;;;5060271;28;61945;-72
2021/12/01 02:41:51;;;;;;;;;1.00;1.00;;;;;;;;5060160;28;62166;-72
2021/12/01 02:44:17;;;;;;;;;0.25;0.25;;;;;;;;5061220;28;61973;-72
2021/12/01 02:46:43;;;;;;;;;2.00;2.00;;;;;;;;5061227;28;61997;-72
2021/12/01 02:49:09;;;;;;;;;2.00;1.00;;;;;;;;5061499;28;61811;-72
2021/12/01 02:51:36;;;;;;;;;2.00;2.00;;;;;;;;5060408;28;61806;-72
2021/12/01 02:54:02;;;;;;;;;1.00;1.00;;;;;;;;5060886;28;63028;-72
2021/12/01 02:56:28;;;;;;;;;2.00;2.00;;;;;;;;5061438;28;62381;-72
2021/12/01 02:58:53;;;;;;;;;2.00;2.00;;;;;;;;5061491;28;61811;-73
2021/12/01 03:01:20;;;;;;;;;0.75;0.75;;;;;;;;5061452;28;61899;-72
2021/12/01 03:03:46;;;;;;;;;2.75;2.50;;;;;;;;5059252;28;64551;-72
2021/12/01 03:06:11;;;;;;;;;2.50;2.50;;;;;;;;5061623;28;61774;-72
2021/12/01 03:08:37;;;;;;;;;3.25;1.25;;;;;;;;5060225;28;61778;-72
2021/12/01 03:11:03;;;;;;;;;3.00;2.00;;;;;;;;5061463;28;62181;-72
2021/12/01 03:13:28;;;;;;;;;2.00;2.00;;;;;;;;5062668;28;61998;-72
2021/12/01 03:15:54;;;;;;;;;2.00;2.00;;;;;;;;5063090;28;62030;-72
2021/12/01 03:18:19;;;;;;;;;3.00;1.50;;;;;;;;5064235;28;61883;-72
2021/12/01 03:20:46;;;;;;;;;5.50;1.00;;;;;;;;5064690;28;61893;-72
2021/12/01 03:23:11;;;;;;;;;1.00;1.00;;;;;;;;5062717;28;61816;-72
2021/12/01 03:25:37;;;;;;;;;1.00;1.00;;;;;;;;5064502;28;61782;-72
2021/12/01 03:28:02;;;;;;;;;3.00;2.00;;;;;;;;5064327;28;61770;-73
2021/12/01 03:30:33;;;;;;;;;1.50;1.25;;;;;;;;5063051;28;62030;-72
2021/12/01 03:32:58;;;;;;;;;0.75;0.75;;;;;;;;5062521;28;64498;-73
2021/12/01 03:35:24;;;;;;;;;1.50;1.00;;;;;;;;5063466;28;61831;-72
2021/12/01 03:37:49;;;;;;;;;0.75;0.75;;;;;;;;5063796;28;62032;-73
2021/12/01 03:40:15;;;;;;;;;0.75;0.75;;;;;;;;5064121;28;61822;-72
2021/12/01 03:42:41;;;;;;;;;1.00;1.00;;;;;;;;5063863;28;61855;-73
2021/12/01 03:45:07;;;;;;;;;1.75;1.00;;;;;;;;5063813;28;61704;-72
2021/12/01 03:47:32;;;;;;;;;2.75;1.00;;;;;;;;5064250;28;61748;-73
2021/12/01 03:49:58;;;;;;;;;1.75;0.75;;;;;;;;5064005;28;61804;-73
2021/12/01 03:52:24;;;;;;;;;0.75;0.50;;;;;;;;5063705;28;62081;-72
2021/12/01 03:54:50;;;;;;;;;1.00;1.00;;;;;;;;5064016;28;61762;-72
2021/12/01 03:57:15;;;;;;;;;1.00;1.00;;;;;;;;5063969;28;61779;-72
2021/12/01 03:59:41;;;;;;;;;1.25;0.25;;;;;;;;5064179;28;61960;-72
2021/12/01 04:02:06;;;;;;;;;0.75;0.75;;;;;;;;5061621;28;61904;-72
2021/12/01 04:04:31;;;;;;;;;2.50;0.00;;;;;;;;5064102;28;61778;-72
2021/12/01 04:06:57;;;;;;;;;2.00;1.00;;;;;;;;5062643;28;61955;-72
2021/12/01 04:09:22;;;;;;;;;3.00;2.00;;;;;;;;5079354;28;62065;-72
2021/12/01 04:11:48;;;;;;;;;1.50;1.00;;;;;;;;5078866;28;63727;-72
2021/12/01 04:14:13;;;;;;;;;3.00;2.00;;;;;;;;5063527;28;62048;-72
2021/12/01 04:16:39;;;;;;;;;1.75;0.50;;;;;;;;5064055;28;61935;-72
2021/12/01 04:19:05;;;;;;;;;1.00;0.00;;;;;;;;5063339;28;61922;-73
2021/12/01 04:21:30;;;;;;;;;1.75;1.00;;;;;;;;5063336;28;61903;-72
2021/12/01 04:23:55;;;;;;;;;2.00;1.00;;;;;;;;5062200;28;61719;-71
2021/12/01 04:26:24;;;;;;;;;2.00;1.00;;;;;;;;5062245;28;62498;-73
2021/12/01 04:28:49;;;;;;;;;0.50;0.50;;;;;;;;5063991;28;61707;-72
2021/12/01 04:31:15;;;;;;;;;1.00;1.00;;;;;;;;5061607;28;63800;-72
2021/12/01 04:33:40;;;;;;;;;1.00;0.00;;;;;;;;5063547;28;61738;-73
2021/12/01 04:36:06;;;;;;;;;0.00;0.00;;;;;;;;5062447;28;61685;-72
2021/12/01 04:38:31;;;;;;;;;1.00;1.00;;;;;;;;5043848;28;61932;-72
2021/12/01 04:40:56;;;;;;;;;1.25;1.00;;;;;;;;5041135;28;63724;-72
2021/12/01 04:43:22;;;;;;;;;2.00;1.00;;;;;;;;5042643;28;61707;-72
2021/12/01 04:45:52;;;;;;;;;1.75;0.75;;;;;;;;5042233;28;61813;-72
2021/12/01 04:48:17;;;;;;;;;1.75;0.50;;;;;;;;5043087;28;61807;-72
2021/12/01 04:50:42;;;;;;;;;2.00;0.00;;;;;;;;5042983;28;63069;-72
2021/12/01 04:53:07;;;;;;;;;0.75;0.00;;;;;;;;5042716;28;61898;-72
2021/12/01 04:55:34;;;;;;;;;1.00;0.00;;;;;;;;5041661;28;61928;-72
2021/12/01 04:57:59;;;;;;;;;1.00;1.00;;;;;;;;5041436;28;62177;-72
2021/12/01 05:00:28;;;;;;;;;1.00;1.00;;;;;;;;5042220;28;61709;-72
2021/12/01 05:02:54;;;;;;;;;2.00;0.25;;;;;;;;5041570;28;62009;-72
2021/12/01 05:05:19;;;;;;;;;0.00;0.00;;;;;;;;5043105;28;62112;-72
2021/12/01 05:07:44;;;;;;;;;3.25;0.25;;;;;;;;5043325;28;61893;-72
2021/12/01 05:10:10;;;;;;;;;0.50;0.25;;;;;;;;5041832;28;63078;-72
2021/12/01 05:12:38;;;;;;;;;1.00;1.00;;;;;;;;5040854;28;62096;-72
2021/12/01 05:15:03;;;;;;;;;0.50;0.50;;;;;;;;5043151;28;62121;-72
2021/12/01 05:17:29;;;;;;;;;2.50;1.00;;;;;;;;5042667;28;61701;-73
2021/12/01 05:19:54;;;;;;;;;1.00;1.00;;;;;;;;5042469;28;62299;-72
2021/12/01 05:22:19;;;;;;;;;1.00;0.00;;;;;;;;5042054;28;61811;-72
2021/12/01 05:24:45;;;;;;;;;0.00;0.00;;;;;;;;5041228;28;62087;-72
2021/12/01 05:27:10;;;;;;;;;0.00;0.00;;;;;;;;5042576;28;61845;-72
2021/12/01 05:29:36;;;;;;;;;1.00;0.00;;;;;;;;5042217;28;61809;-72
2021/12/01 05:32:02;;;;;;;;;0.00;0.00;;;;;;;;5042620;28;61903;-72
2021/12/01 05:34:27;;;;;;;;;0.00;0.00;;;;;;;;5042306;28;61837;-72
2021/12/01 05:36:53;;;;;;;;;1.00;1.00;;;;;;;;5052625;28;62009;-72
2021/12/01 05:39:19;;;;;;;;;0.00;0.00;;;;;;;;5061534;28;62013;-73
2021/12/01 05:41:44;;;;;;;;;1.00;0.00;;;;;;;;5061946;28;61978;-72
2021/12/01 05:44:10;;;;;;;;;0.00;0.00;;;;;;;;5061406;28;61989;-72
2021/12/01 05:46:35;;;;;;;;;0.00;0.00;;;;;;;;5062885;28;61824;-72
2021/12/01 05:49:01;;;;;;;;;0.00;0.00;;;;;;;;5061645;28;61802;-73
2021/12/01 05:51:27;;;;;;;;;0.00;0.00;;;;;;;;5060851;28;61793;-72
2021/12/01 05:53:52;;;;;;;;;0.00;0.00;;;;;;;;5062810;28;61853;-72
2021/12/01 05:56:17;;;;;;;;;0.00;0.00;;;;;;;;5061760;28;61819;-72
2021/12/01 05:58:42;;;;;;;;;0.75;0.75;;;;;;;;5061926;28;61905;-72
2021/12/01 06:01:08;;;;;;;;;0.00;0.00;;;;;;;;5060780;28;61789;-72
2021/12/01 06:03:33;;;;;;;;;0.00;0.00;;;;;;;;5060665;28;62111;-72
2021/12/01 06:05:59;;;;;;;;;0.00;0.00;;;;;;;;5061351;28;61836;-73
2021/12/01 06:08:24;;;;;;;;;0.00;0.00;;;;;;;;5059922;28;64800;-73
2021/12/01 06:10:50;;;;;;;;;0.00;0.00;;;;;;;;5060287;28;62030;-75
2021/12/01 06:13:19;;;;;;;;;1.00;0.00;;;;;;;;5061892;28;61878;-72
2021/12/01 06:15:45;;;;;;;;;0.00;0.00;;;;;;;;5061691;28;61907;-75
2021/12/01 06:18:11;;;;;;;;;0.00;0.00;;;;;;;;5061158;28;62006;-75
2021/12/01 06:20:36;;;;;;;;;0.00;0.00;;;;;;;;5061872;28;62169;-76
2021/12/01 06:23:02;;;;;;;;;1.00;0.00;;;;;;;;5060537;28;61795;-75
2021/12/01 06:25:27;;;;;;;;;0.00;0.00;;;;;;;;5059780;28;62398;-76
2021/12/01 06:27:54;;;;;;;;;0.00;0.00;;;;;;;;5060382;28;63378;-74
2021/12/01 06:30:21;;;;;;;;;0.00;0.00;;;;;;;;5059485;28;61881;-77
2021/12/01 06:32:46;;;;;;;;;0.00;0.00;;;;;;;;5059829;28;62072;-78
2021/12/01 06:35:12;;;;;;;;;0.00;0.00;;;;;;;;5050385;28;62228;-79
2021/12/01 06:37:37;;;;;;;;;0.00;0.00;;;;;;;;5047236;28;62988;-75
2021/12/01 06:40:03;;;;;;;;;0.00;0.00;;;;;;;;5052292;28;62041;-77
2021/12/01 06:42:28;;;;;;;;;0.00;0.00;;;;;;;;5059927;28;62276;-78
2021/12/01 06:44:53;;;;;;;;;2.25;0.00;;;;;;;;5055761;28;62166;-80
2021/12/01 06:47:19;;;;;;;;;0.00;0.00;;;;;;;;5054702;28;62419;-79
2021/12/01 06:49:45;;;;;;;;;0.75;0.00;;;;;;;;5042755;28;61842;-76
2021/12/01 06:52:12;;;;;;;;;2.00;0.00;;;;;;;;5043838;28;61859;-77
2021/12/01 06:54:37;;;;;;;;;1.25;0.00;;;;;;;;5042988;28;61764;-78
2021/12/01 06:57:03;;;;;;;;;0.00;0.00;;;;;;;;5043204;28;61870;-78
2021/12/01 06:59:28;;;;;;;;;1.00;0.00;;;;;;;;5050054;28;62117;-77
2021/12/01 07:01:53;;;;;;;;;0.00;0.00;;;;;;;;5051560;28;62354;-79
2021/12/01 07:04:18;;;;;;;;;0.00;0.00;;;;;;;;5043982;28;62413;-79
2021/12/01 07:06:44;;;;;;;;;0.00;0.00;;;;;;;;5044200;28;61837;-77
2021/12/01 07:09:24;;;;;;;;;0.00;0.00;;;;;;;;5044598;28;61724;-79
2021/12/01 07:11:49;;;;;;;;;0.00;0.00;;;;;;;;5043198;28;61829;-77
2021/12/01 07:14:15;;;;;;;;;1.75;0.00;;;;;;;;5045111;28;61874;-77
2021/12/01 07:16:40;;;;;;;;;0.00;0.00;;;;;;;;5042472;28;63600;-77
2021/12/01 07:19:06;;;;;;;;;0.00;0.00;;;;;;;;5044366;28;61839;-76
2021/12/01 07:21:32;;;;;;;;;0.00;0.00;;;;;;;;5044816;28;61930;-77
2021/12/01 07:23:57;;;;;;;;;0.00;0.00;;;;;;;;5044134;28;61762;-77
2021/12/01 07:26:22;;;;;;;;;0.00;0.00;;;;;;;;5042033;28;62001;-78
2021/12/01 07:28:48;;;;;;;;;0.00;0.00;;;;;;;;5042804;28;61975;-77
2021/12/01 07:31:13;;;;;;;;;0.00;0.00;;;;;;;;5044931;28;62068;-79
2021/12/01 07:33:39;;;;;;;;;1.00;0.00;;;;;;;;5043028;28;61861;-79
2021/12/01 07:36:04;;;;;;;;;0.00;0.00;;;;;;;;5046141;28;62820;-79
2021/12/01 07:38:30;;;;;;;;;0.00;0.00;;;;;;;;5064163;28;61841;-79
2021/12/01 07:40:55;;;;;;;;;0.00;0.00;;;;;;;;5062697;28;61890;-76
2021/12/01 07:43:20;;;;;;;;;0.00;0.00;;;;;;;;5063412;28;62101;-77
2021/12/01 07:45:46;;;;;;;;;0.00;0.00;;;;;;;;5063926;28;62266;-79
2021/12/01 07:48:11;;;;;;;;;0.00;0.00;;;;;;;;5062662;28;61947;-75
2021/12/01 07:50:36;;;;;;;;;0.00;0.00;;;;;;;;5062440;28;61949;-74
2021/12/01 07:53:02;;;;;;;;;2.00;0.00;;;;;;;;5063907;28;61993;-74
2021/12/01 07:55:27;;;;;;;;;0.00;0.00;;;;;;;;5063648;28;62525;-74
2021/12/01 07:57:53;;;;;;;;;0.00;0.00;;;;;;;;5062450;28;61785;-75
2021/12/01 08:00:18;;;;;;;;;0.00;0.00;;;;;;;;5062867;28;62089;-74
2021/12/01 08:02:45;;;;;;;;;0.50;0.00;;;;;;;;5062278;28;61837;-80
2021/12/01 08:05:11;;;;;;;;;0.00;0.00;;;;;;;;5061902;28;61981;-79
2021/12/01 08:07:38;;;;;;;;;1.00;0.00;;;;;;;;5063175;28;62017;-80
2021/12/01 08:10:05;;;;;;;;;0.00;0.00;;;;;;;;5060116;28;62233;-79
2021/12/01 08:12:32;;;;;;;;;0.00;0.00;;;;;;;;5061507;28;61859;-78
2021/12/01 08:14:57;;;;;;;;;0.00;0.00;;;;;;;;5060604;28;63648;-78
2021/12/01 08:17:23;;;;;;;;;1.00;0.00;;;;;;;;5062607;28;61661;-79
2021/12/01 08:19:48;;;;;;;;;0.00;0.00;;;;;;;;5061376;28;61752;-78
2021/12/01 08:22:13;;;;;;;;;0.00;0.00;;;;;;;;5061141;28;61696;-79
2021/12/01 08:24:38;;;;;;;;;0.50;0.00;;;;;;;;5060542;28;62238;-79
2021/12/01 08:27:05;;;;;;;;;0.00;0.00;;;;;;;;5060689;28;62032;-79
2021/12/01 08:29:30;;;;;;;;;0.00;0.00;;;;;;;;5061582;28;61753;-78
2021/12/01 08:31:56;;;;;;;;;0.00;0.00;;;;;;;;5062500;28;62177;-78
2021/12/01 08:34:21;;;;;;;;;0.00;0.00;;;;;;;;5061703;28;61911;-78
2021/12/01 08:36:47;;;;;;;;;2.00;0.00;;;;;;;;5061031;28;61947;-78
2021/12/01 08:39:12;;;;;;;;;0.50;0.00;;;;;;;;5060873;28;62017;-79
2021/12/01 08:41:37;;;;;;;;;0.00;0.00;;;;;;;;5061111;28;62004;-78
2021/12/01 08:44:03;;;;;;;;;1.00;0.00;;;;;;;;5059785;28;63386;-79
2021/12/01 08:46:28;;;;;;;;;0.00;0.00;;;;;;;;5061083;28;61862;-79
2021/12/01 08:48:53;;;;;;;;;0.00;0.00;;;;;;;;5058351;28;61989;-78
2021/12/01 08:51:20;;;;;;;;;0.00;0.00;;;;;;;;5059542;28;62234;-79
2021/12/01 08:53:45;;;;;;;;;0.00;0.00;;;;;;;;5060034;28;62118;-79
2021/12/01 08:56:11;;;;;;;;;0.00;0.00;;;;;;;;5060254;28;61881;-79
2021/12/01 08:58:36;;;;;;;;;0.00;0.00;;;;;;;;5059133;28;61776;-79
2021/12/01 09:01:02;;;;;;;;;0.00;0.00;;;;;;;;5059377;28;61823;-79
2021/12/01 09:03:28;;;;;;;;;0.25;0.25;;;;;;;;5059598;28;61850;-79
2021/12/01 09:05:53;;;;;;;;;0.00;0.00;;;;;;;;5059117;28;61952;-79
2021/12/01 09:08:20;;;;;;;;;0.00;0.00;;;;;;;;5057028;28;61824;-79
2021/12/01 09:10:47;;;;;;;;;0.00;0.00;;;;;;;;5059846;28;62191;-78
2021/12/01 09:13:12;;;;;;;;;0.00;0.00;;;;;;;;5059533;28;61982;-78
2021/12/01 09:15:38;;;;;;;;;0.25;0.00;;;;;;;;5058936;28;61852;-78
2021/12/01 09:18:04;;;;;;;;;0.00;0.00;;;;;;;;5057980;28;61801;-78
2021/12/01 09:20:30;;;;;;;;;0.00;0.00;;;;;;;;5060674;28;62051;-78
2021/12/01 09:22:55;;;;;;;;;1.00;0.00;;;;;;;;5058879;28;61854;-76
2021/12/01 09:25:20;;;;;;;;;1.00;0.00;;;;;;;;5059520;28;61982;-78
2021/12/01 09:27:46;;;;;;;;;0.50;0.00;;;;;;;;5060403;28;61846;-78
2021/12/01 09:30:14;;;;;;;;;0.00;0.00;;;;;;;;5058718;28;62072;-78
2021/12/01 09:32:39;;;;;;;;;2.75;0.00;;;;;;;;5057739;28;61955;-78
2021/12/01 09:35:08;;;;;;;;;1.50;0.00;;;;;;;;5059403;28;62034;-78
2021/12/01 09:37:33;;;;;;;;;0.00;0.00;;;;;;;;5057989;28;62064;-78
2021/12/01 09:39:59;;;;;;;;;0.00;0.00;;;;;;;;5058646;28;62353;-78
2021/12/01 09:42:25;;;;;;;;;0.00;0.00;;;;;;;;5059092;28;63186;-78
2021/12/01 09:44:51;;;;;;;;;0.00;0.00;;;;;;;;5061011;28;61828;-78
2021/12/01 09:47:19;;;;;;;;;2.00;1.00;;;;;;;;5060221;28;61927;-78
2021/12/01 09:49:45;;;;;;;;;0.25;0.25;;;;;;;;5062097;28;61926;-79
2021/12/01 09:52:11;;;;;;;;;0.50;0.00;;;;;;;;5061456;28;62099;-79
2021/12/01 09:54:38;;;;;;;;;0.00;0.00;;;;;;;;5059061;28;62239;-80
2021/12/01 09:57:12;;;;;;;;;0.25;0.00;;;;;;;;5058818;28;62044;-79
2021/12/01 09:59:37;;;;;;;;;0.00;0.00;;;;;;;;5057661;28;62223;-81
2021/12/01 10:02:03;;;;;;;;;1.00;0.00;;;;;;;;5052806;28;63154;-80
2021/12/01 10:04:29;;;;;;;;;0.00;0.00;;;;;;;;5059186;28;61982;-81
2021/12/01 10:07:15;;;;;;;;;2.00;1.00;;;;;;;;5057565;28;61821;-81
2021/12/01 10:09:45;;;;;;;;;0.00;0.00;;;;;;;;5055322;28;62040;-80
2021/12/01 10:12:11;;;;;;;;;0.00;0.00;;;;;;;;5057804;28;61754;-80
2021/12/01 10:14:36;;;;;;;;;0.00;0.00;;;;;;;;5057261;28;61835;-81
2021/12/01 10:17:02;;;;;;;;;0.00;0.00;;;;;;;;5058136;28;61770;-81
2021/12/01 10:19:28;;;;;;;;;0.00;0.00;;;;;;;;5056839;28;61823;-81
2021/12/01 10:21:54;;;;;;;;;0.25;0.25;;;;;;;;5057101;28;63666;-81
2021/12/01 10:24:21;;;;;;;;;1.25;0.25;;;;;;;;5061793;28;61713;-81
2021/12/01 10:26:48;;;;;;;;;2.00;0.00;;;;;;;;5060315;28;62315;-80
2021/12/01 10:29:15;;;;;;;;;0.25;0.25;;;;;;;;5060043;28;62328;-80
2021/12/01 10:31:43;;;;;;;;;0.00;0.00;;;;;;;;5059824;28;63478;-80
2021/12/01 10:34:28;;;;;;;;;0.75;0.75;;;;;;;;5059891;28;62015;-81
2021/12/01 10:37:07;;;;;;;;;1.00;1.00;;;;;;;;5045290;28;61918;-80
2021/12/01 10:39:33;;;;;;;;;2.00;0.75;;;;;;;;5047847;28;61690;-80
2021/12/01 10:42:03;;;;;;;;;0.50;0.50;;;;;;;;5053628;28;62117;-81
2021/12/01 10:44:28;;;;;;;;;1.00;1.00;;;;;;;;5052779;28;62127;-79
2021/12/01 10:46:53;;;;;;;;;3.25;1.50;;;;;;;;5061482;28;61952;-80
2021/12/01 10:49:32;;;;;;;;;3.00;1.75;;;;;;;;5063166;28;61812;-80
2021/12/01 10:51:58;;;;;;;;;1.25;0.50;;;;;;;;5064182;28;63048;-81
2021/12/01 10:54:23;;;;;;;;;0.25;0.00;;;;;;;;5062157;28;61898;-81
2021/12/01 10:57:15;;;;;;;;;2.75;2.75;;;;;;;;5062264;28;62177;-79
2021/12/01 10:59:45;;;;;;;;;2.75;2.00;;;;;;;;5040111;28;61763;-77
2021/12/01 11:02:11;;;;;;;;;0.25;0.25;;;;;;;;5043395;28;61954;-76
2021/12/01 11:04:47;;;;;;;;;2.00;1.00;;;;;;;;5044426;28;61773;-74
2021/12/01 11:07:27;;;;;;;;;1.00;1.00;;;;;;;;5043167;28;61824;-78
2021/12/01 11:10:08;;;;;;;;;3.25;0.00;;;;;;;;5042859;28;61773;-77
2021/12/01 11:12:34;;;;;;;;;5.75;1.00;;;;;;;;5042215;28;63847;-78
2021/12/01 11:15:14;;;;;;;;;2.00;1.00;;;;;;;;5045414;28;61748;-78
2021/12/01 11:17:40;;;;;;;;;2.25;1.00;;;;;;;;5029489;28;61932;-77
2021/12/01 11:20:07;;;;;;;;;1.00;1.00;;;;;;;;5060055;28;61695;-77
2021/12/01 11:22:36;;;;;;;;;0.50;0.50;;;;;;;;5053124;28;62076;-76
2021/12/01 11:25:22;;;;;;;;;2.00;2.00;;;;;;;;5043888;28;62054;-79
2021/12/01 11:27:47;;;;;;;;;2.00;0.50;;;;;;;;5044127;28;61943;-77
2021/12/01 11:30:13;;;;;;;;;1.00;1.00;;;;;;;;5044110;28;61803;-77
2021/12/01 11:32:38;;;;;;;;;1.00;0.75;;;;;;;;5041572;28;63201;-76
2021/12/01 11:35:04;;;;;;;;;5.00;1.00;;;;;;;;5050467;28;61777;-76
2021/12/01 11:37:29;;;;;;;;;1.50;1.50;;;;;;;;5059882;28;62052;-76
2021/12/01 11:39:56;;;;;;;;;1.00;1.00;;;;;;;;5062468;28;62561;-76
2021/12/01 11:42:21;;;;;;;;;1.00;1.00;;;;;;;;5060558;28;62849;-75
2021/12/01 11:44:47;;;;;;;;;0.25;0.25;;;;;;;;5062321;28;61911;-76
2021/12/01 11:47:13;;;;;;;;;3.75;2.00;;;;;;;;5064058;28;61828;-76
2021/12/01 11:49:39;;;;;;;;;1.00;1.00;;;;;;;;5063870;28;61746;-76
2021/12/01 11:52:09;;;;;;;;;1.00;1.00;;;;;;;;5053027;28;63027;-76
2021/12/01 11:54:41;;;;;;;;;2.75;1.50;;;;;;;;5052787;28;61937;-75
2021/12/01 11:57:07;;;;;;;;;1.00;1.00;;;;;;;;5054336;28;61747;-75
2021/12/01 11:59:36;;;;;;;;;1.50;1.50;;;;;;;;5051269;28;62153;-76
2021/12/01 12:02:02;;;;;;;;;1.00;1.00;;;;;;;;5051886;28;61859;-76
2021/12/01 12:04:29;;;;;;;;;1.00;1.00;;;;;;;;5055556;28;61774;-76
2021/12/01 12:06:59;;;;;;;;;2.00;2.00;;;;;;;;5054551;28;61952;-75
2021/12/01 12:09:25;;;;;;;;;5.25;2.00;;;;;;;;5073562;28;61970;-76
2021/12/01 12:11:52;;;;;;;;;2.50;2.00;;;;;;;;5055147;28;61859;-77
2021/12/01 12:14:25;;;;;;;;;3.00;0.25;;;;;;;;5063931;28;61767;-77
2021/12/01 12:17:10;;;;;;;;;0.00;0.00;;;;;;;;5057336;28;61926;-76
2021/12/01 12:19:48;;;;;;;;;2.00;2.00;;;;;;;;5063562;28;62192;-77
2021/12/01 12:25:00;;;;;;;;;0.25;0.25;;;;;;;;5051087;28;62258;-76
2021/12/01 12:27:30;;;;;;;;;2.00;1.25;;;;;;;;5053610;28;61931;-76
2021/12/01 12:29:57;;;;;;;;;3.00;0.50;;;;;;;;5053381;28;61853;-76
2021/12/01 12:32:24;;;;;;;;;2.50;2.00;;;;;;;;5049781;28;62111;-77
2021/12/01 12:34:50;;;;;;;;;2.00;0.25;;;;;;;;5053314;28;61756;-77
2021/12/01 12:37:23;;;;;;;;;2.00;1.00;;;;;;;;5053898;28;61910;-73
2021/12/01 12:39:49;;;;;;;;;1.00;1.00;;;;;;;;5041288;28;62094;-75
2021/12/01 12:42:15;;;;;;;;;3.00;1.00;;;;;;;;5042108;28;62978;-79
2021/12/01 12:44:50;;;;;;;;;0.00;0.00;;;;;;;;5040567;28;61942;-79
2021/12/01 12:47:17;;;;;;;;;4.25;2.25;;;;;;;;5051416;28;61803;-78
2021/12/01 12:49:46;;;;;;;;;0.50;0.50;;;;;;;;5061156;28;61925;-78
2021/12/01 12:52:23;;;;;;;;;4.50;1.00;;;;;;;;5060772;28;63466;-79
2021/12/01 12:54:49;;;;;;;;;1.75;1.75;;;;;;;;5061140;28;62175;-78
2021/12/01 12:57:16;;;;;;;;;1.50;1.00;;;;;;;;5061360;28;61990;-78
2021/12/01 12:59:41;;;;;;;;;1.75;1.50;;;;;;;;5063303;28;61778;-78
2021/12/01 13:02:09;;;;;;;;;1.50;1.00;;;;;;;;5062306;28;62014;-78
2021/12/01 13:04:47;;;;;;;;;0.50;0.50;;;;;;;;5062978;28;62097;-78
2021/12/01 13:07:31;;;;;;;;;0.75;0.75;;;;;;;;5063049;28;61849;-78
2021/12/01 13:10:08;;;;;;;;;1.00;1.00;;;;;;;;5046517;28;61811;-78
2021/12/01 13:12:49;;;;;;;;;3.00;1.00;;;;;;;;5057491;28;61892;-78
2021/12/01 13:15:18;;;;;;;;;0.00;0.00;;;;;;;;5041659;28;61871;-78
2021/12/01 13:17:47;;;;;;;;;2.00;1.00;;;;;;;;5056692;28;61797;-78
2021/12/01 13:20:12;;;;;;;;;2.75;1.50;;;;;;;;5061728;28;62122;-78
2021/12/01 13:22:38;;;;;;;;;4.50;2.50;;;;;;;;5061743;28;61915;-78
2021/12/01 13:25:03;;;;;;;;;4.25;2.75;;;;;;;;5060405;28;61763;-78
2021/12/01 13:27:41;;;;;;;;;2.75;1.00;;;;;;;;5063009;28;61815;-78
2021/12/01 13:30:07;;;;;;;;;1.25;0.50;;;;;;;;5061508;28;62125;-78
2021/12/01 13:32:33;;;;;;;;;1.75;1.75;;;;;;;;5060528;28;64712;-78
2021/12/01 13:34:59;;;;;;;;;0.50;0.50;;;;;;;;5062461;28;61893;-78
2021/12/01 13:37:24;;;;;;;;;1.25;1.00;;;;;;;;5048594;28;61918;-78
2021/12/01 13:39:52;;;;;;;;;4.00;1.00;;;;;;;;5041447;28;62069;-78
2021/12/01 13:42:23;;;;;;;;;1.00;0.50;;;;;;;;5041856;28;62139;-78
2021/12/01 13:44:48;;;;;;;;;0.25;0.25;;;;;;;;5042275;28;61735;-78
2021/12/01 13:47:17;;;;;;;;;2.00;1.00;;;;;;;;5041122;28;62060;-78
2021/12/01 13:49:48;;;;;;;;;1.00;0.00;;;;;;;;5040686;28;61883;-78
2021/12/01 13:52:34;;;;;;;;;0.00;0.00;;;;;;;;5040271;28;63018;-78
2021/12/01 13:55:19;;;;;;;;;0.25;0.25;;;;;;;;5040175;28;61764;-78
2021/12/01 13:58:03;;;;;;;;;0.50;0.50;;;;;;;;5041820;28;61629;-78
2021/12/01 14:00:40;;;;;;;;;1.00;1.00;;;;;;;;5042467;28;61803;-78
2021/12/01 14:03:07;;;;;;;;;0.00;0.00;;;;;;;;5041269;28;62077;-78
2021/12/01 14:05:34;;;;;;;;;3.50;2.00;;;;;;;;5040827;28;61740;-78
2021/12/01 14:08:01;;;;;;;;;1.75;1.00;;;;;;;;5041168;28;61774;-78
2021/12/01 14:10:26;;;;;;;;;0.75;0.75;;;;;;;;5041770;28;62081;-78
2021/12/01 14:12:59;;;;;;;;;1.50;1.00;;;;;;;;5041463;28;61794;-78
2021/12/01 14:15:28;;;;;;;;;0.75;0.75;;;;;;;;5040608;28;61874;-78
2021/12/01 14:17:54;;;;;;;;;2.75;1.75;;;;;;;;5041312;28;62063;-78
2021/12/01 14:20:22;;;;;;;;;1.75;1.50;;;;;;;;5040653;28;61765;-78
2021/12/01 14:22:48;;;;;;;;;3.00;0.25;;;;;;;;5039491;28;61917;-78
2021/12/01 14:25:13;;;;;;;;;1.00;0.00;;;;;;;;5039919;28;61941;-78
2021/12/01 14:27:41;;;;;;;;;1.50;0.00;;;;;;;;5040614;28;61992;-78
2021/12/01 14:30:11;;;;;;;;;1.00;0.00;;;;;;;;5040245;28;62121;-78
2021/12/01 14:32:36;;;;;;;;;0.25;0.25;;;;;;;;5039337;28;63625;-78
2021/12/01 14:35:03;;;;;;;;;1.00;1.00;;;;;;;;5041668;28;61689;-78
2021/12/01 14:37:29;;;;;;;;;1.00;1.00;;;;;;;;5055996;28;61691;-78
2021/12/01 14:40:07;;;;;;;;;1.00;1.00;;;;;;;;5059982;28;61978;-78
2021/12/01 14:42:33;;;;;;;;;0.50;0.00;;;;;;;;5059437;28;64198;-78
2021/12/01 14:45:05;;;;;;;;;2.50;1.00;;;;;;;;5056577;28;61893;-78
2021/12/01 14:47:31;;;;;;;;;2.50;1.00;;;;;;;;5052731;28;61904;-78
2021/12/01 14:49:56;;;;;;;;;3.00;2.00;;;;;;;;5046575;28;61901;-78